Smithfield, Rhode Island
Current Conditions -  °F | °C
As of 4:35 PM on Friday 19 Dec 2014 (Local Time) from KSFZ Reporting Station
Overcast Overcast  
Wind Chill: 26°   Ceiling: 3000
Heat Index: 32°   Visibility: 10mi
Dew Point: 18°   Wind: 7mph
Humidity: 55%   Direction: 290°WNW
Pressure: 29.99"   Gusts: NA
Location:  41.92°N, 71.55°W
Report Text: KSFZ 192135Z 29006KT 10SM OVC030 00/M08 A2999 RMK AO1
Loading
Personal Weather Stations






























Interactive Weather Map New forecast layout! Learn more

10-Day Weather Forecast

Advertisements
Track Severe Weather on mobile